MST,Max TemperatureF,Mean TemperatureF,Min TemperatureF,Max Dew PointF,MeanDew PointF,Min DewpointF,Max Humidity, Mean Humidity, Min Humidity, Max Sea Level PressureIn, Mean Sea Level PressureIn, Min Sea Level PressureIn, Max VisibilityMiles, Mean VisibilityMiles, Min VisibilityMiles, Max Wind SpeedMPH, Mean Wind SpeedMPH, Max Gust SpeedMPH,PrecipitationIn, CloudCover, Events, WindDirDegrees
2013-1-1,14,2,-11,8,-1,-16,87,79,70,30.62,30.46,30.34,,,,7,1,9,0.01,,,150
2013-1-2,10,-2,-15,1,-8,-20,91,82,72,30.78,30.65,30.52,,,,6,0,7,0.00,,,195
2013-1-3,8,-5,-19,-2,-13,-24,83,76,68,30.85,30.78,30.71,,,,3,0,7,0.00,,,94
2013-1-4,14,-1,-17,3,-10,-22,95,78,61,30.80,30.68,30.55,,,,5,0,5,0.00,,,300
2013-1-5,14,-1,-17,2,-10,-23,87,74,61,30.82,30.70,30.58,,,,6,1,9,0.00,,,91
2013-1-6,22,7,-9,17,2,-13,91,79,66,30.55,30.39,30.25,,,,5,0,8,0.03,,,280
2013-1-7,20,9,-2,15,7,-5,95,84,73,30.27,30.19,30.05,,,,13,3,24,0.16,,,293
2013-1-8,24,21,17,21,16,12,92,85,77,30.32,30.19,30.03,,,,14,6,28,0.03,,,270
2013-1-9,35,25,14,23,20,11,92,74,56,30.36,30.15,29.89,,,,9,2,15,0.01,,,290
2013-1-10,29,21,12,25,18,8,92,86,80,29.84,29.62,29.47,,,,10,1,18,0.28,,,280
2013-1-11,12,3,-7,7,-5,-13,84,75,65,30.13,29.80,29.51,,,,9,1,18,0.10,,,288
2013-1-12,1,-9,-20,-6,-13,-24,87,79,71,30.35,30.24,30.14,,,,5,0,5,0.01,,,110
2013-1-13,-2,-15,-29,-9,-19,-35,82,76,69,30.49,30.42,30.32,,,,4,0,,0.00,,,280
2013-1-14,0,-13,-27,-6,-16,-31,81,76,70,30.60,30.48,30.37,,,,4,0,,0.02,,,120
2013-1-15,6,0,-7,2,-4,-12,87,81,75,30.72,30.66,30.55,,,,5,1,10,0.03,,,245
2013-1-16,16,4,-8,5,-1,-12,91,81,70,30.88,30.76,30.66,,,,5,0,9,0.00,,,329
2013-1-17,22,3,-17,9,-7,-20,87,79,70,30.98,30.86,30.71,,,,5,0,6,0.00,,,310
2013-1-18,30,11,-9,15,1,-13,95,74,53,30.73,30.60,30.44,,,,7,1,13,0.00,,,324
2013-1-19,21,5,-12,11,-2,-16,92,74,56,30.74,30.65,30.53,,,,5,1,7,0.00,,,300
2013-1-20,28,9,-10,12,-1,-13,91,76,61,30.73,30.63,30.53,,,,8,1,12,0.00,,,180
2013-1-21,30,11,-9,13,0,-13,91,69,47,30.70,30.59,30.47,,,,6,1,10,0.00,,,334
2013-1-22,25,7,-12,12,-3,-17,91,70,49,30.70,30.61,30.51,,,,5,0,6,0.00,,,-1
2013-1-23,25,11,-4,14,4,-8,95,73,51,30.61,30.49,30.35,,,,5,1,7,0.00,,,300
2013-1-24,30,22,13,24,19,11,92,82,72,30.30,30.26,30.22,,,,13,3,21,0.05,,,257
2013-1-25,31,29,26,24,23,21,85,77,69,30.29,30.22,30.09,,,,12,1,18,0.00,,,-1
2013-1-26,36,32,27,30,27,22,100,88,75,30.07,29.92,29.79,,,,6,0,15,0.12,,,-1
2013-1-27,30,23,15,26,20,10,92,85,78,29.81,29.74,29.68,,,,8,1,15,0.19,,,275
2013-1-28,17,10,3,11,6,1,92,76,59,29.97,29.89,29.81,,,,14,1,21,0.05,,,280
2013-1-29,17,7,-3,6,0,-5,91,71,51,30.28,30.03,29.85,,,,12,1,18,0.03,,,120
2013-1-30,25,14,2,18,12,-1,92,83,74,30.18,30.10,30.05,,,,18,5,26,0.18,,,280
2013-1-31,27,24,20,19,18,16,88,81,74,30.26,30.20,30.08,,,,14,5,22,0.04,,,266